createdAt,value
2023-02-26T00:02:22.522Z,0.85
2023-02-26T00:05:08.884Z,1.30
2023-02-26T00:07:54.516Z,1.20
2023-02-26T00:10:40.307Z,1.10
2023-02-26T00:13:26.316Z,0.70
2023-02-26T00:16:27.918Z,1.15
2023-02-26T00:19:14.218Z,1.05
2023-02-26T00:21:59.675Z,1.50
2023-02-26T00:24:45.164Z,2.50
2023-02-26T00:27:30.546Z,1.05
2023-02-26T00:30:16.288Z,1.10
2023-02-26T00:33:02.159Z,0.90
2023-02-26T00:35:47.841Z,0.88
2023-02-26T00:38:34.867Z,0.88
2023-02-26T00:41:20.294Z,1.40
2023-02-26T00:44:05.607Z,0.77
2023-02-26T00:47:17.854Z,1.33
2023-02-26T00:50:20.522Z,0.60
2023-02-26T00:53:17.002Z,0.82
2023-02-26T00:56:02.298Z,1.33
2023-02-26T00:58:47.786Z,1.10
2023-02-26T01:01:33.173Z,1.30
2023-02-26T01:04:21.097Z,0.80
2023-02-26T01:07:09.226Z,0.85
2023-02-26T01:09:54.979Z,0.60
2023-02-26T01:12:41.202Z,1.42
2023-02-26T01:15:26.684Z,1.15
2023-02-26T01:18:14.036Z,1.00
2023-02-26T01:21:08.388Z,1.38
2023-02-26T01:23:53.871Z,0.95
2023-02-26T01:26:39.587Z,1.70
2023-02-26T01:29:25.165Z,1.65
2023-02-26T01:32:38.197Z,0.90
2023-02-26T01:35:38.811Z,0.85
2023-02-26T01:38:44.728Z,0.88
2023-02-26T01:41:43.266Z,0.90
2023-02-26T01:44:42.796Z,0.80
2023-02-26T01:47:41.084Z,1.10
2023-02-26T01:50:29.982Z,1.00
2023-02-26T01:53:21.815Z,0.90
2023-02-26T01:56:17.123Z,1.10
2023-02-26T01:59:05.904Z,1.10
2023-02-26T02:01:57.586Z,0.90
2023-02-26T02:04:43.767Z,0.82
2023-02-26T02:07:30.131Z,0.90
2023-02-26T02:10:15.232Z,0.85
2023-02-26T02:13:28.248Z,1.00
2023-02-26T02:16:29.159Z,1.08
2023-02-26T02:19:57.629Z,0.80
2023-02-26T02:23:02.200Z,1.27
2023-02-26T02:26:14.049Z,1.02
2023-02-26T02:29:27.361Z,0.90
2023-02-26T02:32:18.433Z,1.15
2023-02-26T02:35:08.235Z,1.13
2023-02-26T02:38:11.613Z,1.38
2023-02-26T02:41:14.978Z,1.17
2023-02-26T02:44:03.392Z,1.05
2023-02-26T02:46:51.766Z,0.90
2023-02-26T02:49:46.374Z,0.90
2023-02-26T02:52:35.784Z,0.68
2023-02-26T02:55:26.336Z,1.10
2023-02-26T02:58:19.018Z,1.15
2023-02-26T03:01:09.207Z,1.00
2023-02-26T03:04:09.122Z,0.70
2023-02-26T03:06:54.166Z,0.90
2023-02-26T03:09:39.692Z,0.80
2023-02-26T03:12:27.158Z,0.98
2023-02-26T03:15:14.065Z,0.70
2023-02-26T03:18:08.074Z,0.90
2023-02-26T03:21:05.001Z,0.93
2023-02-26T03:23:53.662Z,1.00
2023-02-26T03:26:48.133Z,0.80
2023-02-26T03:29:33.384Z,1.00
2023-02-26T03:32:31.354Z,1.20
2023-02-26T03:35:29.571Z,0.93
2023-02-26T03:38:24.864Z,0.88
2023-02-26T03:41:17.884Z,1.05
2023-02-26T03:44:21.087Z,0.88
2023-02-26T03:50:04.772Z,0.85
2023-02-26T03:52:52.301Z,0.90
2023-02-26T03:55:59.195Z,1.25
2023-02-26T03:58:45.460Z,1.05
2023-02-26T04:01:41.122Z,1.60
2023-02-26T04:05:10.682Z,1.40
2023-02-26T04:07:57.718Z,0.93
2023-02-26T04:10:51.678Z,0.95
2023-02-26T04:13:37.111Z,1.00
2023-02-26T04:16:24.008Z,0.90
2023-02-26T04:19:09.669Z,1.40
2023-02-26T04:21:55.220Z,1.30
2023-02-26T04:24:40.504Z,1.10
2023-02-26T04:27:25.874Z,1.05
2023-02-26T04:30:11.861Z,1.10
2023-02-26T04:32:57.258Z,1.10
2023-02-26T04:35:43.284Z,0.90
2023-02-26T04:38:28.739Z,1.02
2023-02-26T04:41:13.758Z,1.98
2023-02-26T04:43:58.965Z,1.38
2023-02-26T04:46:44.405Z,0.90
2023-02-26T04:49:29.944Z,0.93
2023-02-26T04:52:15.330Z,1.10
2023-02-26T04:55:00.880Z,1.00
2023-02-26T04:57:46.820Z,1.05
2023-02-26T05:00:32.282Z,1.08
2023-02-26T05:03:18.286Z,1.00
2023-02-26T05:06:03.858Z,1.00
2023-02-26T05:08:49.275Z,1.10
2023-02-26T05:11:34.573Z,1.30
2023-02-26T05:14:20.244Z,1.05
2023-02-26T05:17:05.553Z,1.08
2023-02-26T05:19:51.098Z,0.80
2023-02-26T05:22:38.021Z,1.00
2023-02-26T05:25:23.346Z,1.00
2023-02-26T05:28:08.648Z,1.67
2023-02-26T05:30:56.558Z,1.27
2023-02-26T05:33:42.998Z,1.23
2023-02-26T05:36:28.475Z,1.30
2023-02-26T05:39:13.993Z,2.20
2023-02-26T05:41:59.493Z,1.55
2023-02-26T05:44:44.869Z,1.98
2023-02-26T05:47:30.109Z,1.30
2023-02-26T05:50:15.605Z,1.45
2023-02-26T05:53:01.025Z,1.38
2023-02-26T05:55:46.518Z,1.20
2023-02-26T05:58:33.938Z,1.27
2023-02-26T06:01:19.434Z,1.40
2023-02-26T06:04:06.089Z,1.52
2023-02-26T06:06:51.351Z,1.60
2023-02-26T06:09:36.695Z,1.50
2023-02-26T06:12:22.112Z,1.65
2023-02-26T06:15:08.727Z,1.65
2023-02-26T06:17:53.836Z,1.33
2023-02-26T06:20:39.310Z,1.73
2023-02-26T06:23:24.674Z,1.52
2023-02-26T06:26:10.328Z,1.75
2023-02-26T06:28:55.524Z,1.58
2023-02-26T06:31:40.962Z,1.70
2023-02-26T06:34:26.388Z,1.77
2023-02-26T06:37:11.686Z,2.00
2023-02-26T06:39:57.330Z,2.10
2023-02-26T06:42:42.595Z,1.65
2023-02-26T06:45:28.145Z,1.52
2023-02-26T06:48:13.868Z,1.33
2023-02-26T06:50:59.439Z,1.42
2023-02-26T06:53:44.806Z,1.35
2023-02-26T06:56:30.216Z,1.25
2023-02-26T06:59:15.490Z,1.27
2023-02-26T07:02:00.844Z,1.10
2023-02-26T07:04:46.313Z,1.10
2023-02-26T07:07:32.422Z,3.22
2023-02-26T07:10:18.014Z,1.20
2023-02-26T07:13:03.541Z,1.10
2023-02-26T07:15:49.045Z,0.93
2023-02-26T07:18:35.283Z,1.25
2023-02-26T07:21:20.739Z,1.13
2023-02-26T07:24:06.525Z,1.08
2023-02-26T07:26:51.957Z,1.38
2023-02-26T07:29:37.334Z,1.17
2023-02-26T07:32:22.946Z,1.23
2023-02-26T07:35:08.772Z,1.58
2023-02-26T07:37:54.145Z,1.30
2023-02-26T07:40:39.525Z,1.20
2023-02-26T07:43:25.164Z,1.02
2023-02-26T07:46:10.663Z,0.90
2023-02-26T07:48:55.974Z,1.00
2023-02-26T07:51:45.752Z,1.10
2023-02-26T07:54:31.036Z,0.90
2023-02-26T07:57:16.353Z,0.80
2023-02-26T08:00:02.081Z,0.98
2023-02-26T08:02:47.791Z,0.70
2023-02-26T08:05:33.349Z,0.90
2023-02-26T08:08:19.073Z,1.08
2023-02-26T08:11:04.707Z,0.90
2023-02-26T08:13:49.999Z,0.95
2023-02-26T08:16:35.313Z,0.60
2023-02-26T08:19:20.681Z,0.77
2023-02-26T08:22:07.429Z,0.85
2023-02-26T08:24:52.839Z,1.05
2023-02-26T08:27:38.538Z,0.90
2023-02-26T08:30:23.549Z,0.73
2023-02-26T08:33:08.927Z,0.90
2023-02-26T08:35:55.684Z,1.20
2023-02-26T08:38:40.937Z,0.90
2023-02-26T08:41:29.074Z,0.77
2023-02-26T08:44:14.256Z,1.00
2023-02-26T08:47:00.728Z,1.00
2023-02-26T08:49:45.835Z,1.80
2023-02-26T08:52:31.375Z,1.05
2023-02-26T08:55:16.864Z,1.05
2023-02-26T08:58:02.232Z,0.80
2023-02-26T09:00:48.625Z,0.95
2023-02-26T09:03:34.159Z,0.90
2023-02-26T09:06:20.067Z,0.75
2023-02-26T09:09:05.629Z,0.90
2023-02-26T09:11:51.178Z,0.95
2023-02-26T09:14:36.628Z,0.90
2023-02-26T09:17:21.940Z,1.15
2023-02-26T09:20:09.093Z,1.20
2023-02-26T09:22:54.652Z,1.00
2023-02-26T09:25:39.928Z,1.02
2023-02-26T09:28:26.434Z,1.40
2023-02-26T09:31:11.670Z,1.00
2023-02-26T09:33:57.129Z,1.27
2023-02-26T09:36:43.927Z,1.08
2023-02-26T09:39:29.031Z,1.45
2023-02-26T09:42:23.232Z,1.20
2023-02-26T09:45:18.860Z,1.10
2023-02-26T09:48:06.671Z,1.08
2023-02-26T09:50:56.212Z,1.20
2023-02-26T09:53:42.070Z,0.90
2023-02-26T09:56:30.901Z,0.85
2023-02-26T09:59:15.965Z,1.20
2023-02-26T10:02:04.474Z,0.98
2023-02-26T10:05:01.566Z,1.00
2023-02-26T10:07:56.847Z,1.10
2023-02-26T10:10:48.806Z,1.25
2023-02-26T10:13:56.733Z,1.13
2023-02-26T10:16:49.447Z,1.02
2023-02-26T10:19:40.611Z,0.95
2023-02-26T10:22:37.673Z,1.13
2023-02-26T10:25:38.510Z,1.00
2023-02-26T10:28:36.285Z,0.60
2023-02-26T10:31:49.337Z,0.95
2023-02-26T10:34:49.581Z,1.20
2023-02-26T10:37:57.055Z,1.20
2023-02-26T10:40:59.588Z,1.27
2023-02-26T10:43:52.396Z,1.38
2023-02-26T10:46:54.561Z,1.20
2023-02-26T10:49:53.594Z,1.08
2023-02-26T10:52:40.472Z,0.90
2023-02-26T10:55:29.996Z,1.27
2023-02-26T10:58:20.460Z,1.02
2023-02-26T11:01:15.971Z,1.02
2023-02-26T11:04:08.952Z,0.90
2023-02-26T11:07:00.954Z,1.10
2023-02-26T11:09:46.634Z,0.93
2023-02-26T11:12:32.582Z,0.68
2023-02-26T11:15:22.940Z,1.10
2023-02-26T11:18:18.335Z,0.80
2023-02-26T11:21:05.613Z,0.88
2023-02-26T11:23:58.529Z,1.27
2023-02-26T11:26:47.914Z,0.85
2023-02-26T11:29:38.497Z,0.63
2023-02-26T11:32:32.732Z,0.80
2023-02-26T11:35:22.916Z,0.90
2023-02-26T11:38:21.655Z,1.13
2023-02-26T11:41:07.606Z,0.70
2023-02-26T11:44:07.290Z,0.70
2023-02-26T11:46:57.687Z,1.10
2023-02-26T11:49:49.701Z,0.70
2023-02-26T11:52:41.050Z,0.63
2023-02-26T11:55:36.244Z,1.10
2023-02-26T11:58:24.183Z,1.00
2023-02-26T12:01:12.303Z,0.85
2023-02-26T12:04:03.376Z,0.80
2023-02-26T12:06:52.355Z,0.70
2023-02-26T12:09:37.680Z,0.98
2023-02-26T12:12:53.173Z,0.82
2023-02-26T12:16:01.978Z,0.80
2023-02-26T12:18:59.337Z,0.90
2023-02-26T12:22:04.754Z,0.90
2023-02-26T12:25:21.854Z,1.20
2023-02-26T12:28:32.003Z,1.00
2023-02-26T12:31:39.421Z,0.93
2023-02-26T12:34:48.032Z,1.20
2023-02-26T12:37:33.521Z,0.95
2023-02-26T12:40:36.731Z,0.82
2023-02-26T12:43:30.724Z,0.88
2023-02-26T12:46:40.931Z,1.15
2023-02-26T12:49:27.042Z,1.15
2023-02-26T12:52:34.904Z,0.90
2023-02-26T12:55:20.036Z,0.93
2023-02-26T12:58:27.098Z,1.08
2023-02-26T13:01:21.815Z,1.27
2023-02-26T13:04:23.341Z,1.20
2023-02-26T13:07:20.438Z,0.90
2023-02-26T13:10:28.214Z,1.50
2023-02-26T13:13:16.551Z,1.00
2023-02-26T13:16:17.130Z,1.00
2023-02-26T13:19:07.226Z,0.80
2023-02-26T13:22:15.983Z,0.90
2023-02-26T13:25:05.814Z,0.82
2023-02-26T13:27:53.657Z,0.80
2023-02-26T13:30:45.934Z,1.20
2023-02-26T13:33:33.462Z,0.90
2023-02-26T13:36:22.161Z,1.10
2023-02-26T13:39:35.399Z,0.93
2023-02-26T13:42:33.881Z,0.98
2023-02-26T13:45:42.455Z,1.13
2023-02-26T13:48:56.548Z,1.23
2023-02-26T13:51:45.132Z,1.10
2023-02-26T13:54:46.251Z,0.90
2023-02-26T13:57:37.580Z,0.90
2023-02-26T14:00:35.863Z,1.00
2023-02-26T14:03:24.551Z,1.08
2023-02-26T14:06:51.125Z,0.95
2023-02-26T14:09:44.290Z,0.88
2023-02-26T14:12:29.488Z,0.80
2023-02-26T14:15:31.649Z,1.00
2023-02-26T14:18:29.639Z,0.90
2023-02-26T14:21:28.025Z,1.10
2023-02-26T14:24:18.609Z,1.05
2023-02-26T14:27:27.982Z,0.77
2023-02-26T14:30:29.873Z,0.80
2023-02-26T14:33:18.142Z,0.82
2023-02-26T14:36:06.337Z,1.10
2023-02-26T14:38:53.277Z,0.80
2023-02-26T14:41:41.354Z,0.80
2023-02-26T14:44:37.172Z,0.80
2023-02-26T14:47:22.520Z,0.80
2023-02-26T14:50:08.566Z,0.82
2023-02-26T14:53:39.142Z,1.05
2023-02-26T14:57:03.126Z,1.00
2023-02-26T15:00:31.616Z,0.90
2023-02-26T15:03:50.490Z,0.82
2023-02-26T15:06:46.531Z,1.10
2023-02-26T15:09:49.643Z,0.90
2023-02-26T15:12:51.536Z,0.93
2023-02-26T15:16:10.743Z,1.45
2023-02-26T15:19:20.802Z,0.90
2023-02-26T15:22:40.639Z,0.70
2023-02-26T15:25:34.234Z,1.05
2023-02-26T15:28:25.582Z,0.95
2023-02-26T15:31:13.822Z,0.82
2023-02-26T15:34:00.496Z,0.73
2023-02-26T15:36:49.763Z,0.80
2023-02-26T15:39:35.887Z,0.63
2023-02-26T15:42:27.236Z,0.80
2023-02-26T15:45:31.404Z,1.02
2023-02-26T15:48:20.643Z,1.00
2023-02-26T15:51:10.160Z,1.20
2023-02-26T15:54:02.965Z,1.20
2023-02-26T15:56:49.104Z,1.15
2023-02-26T15:59:34.746Z,1.08
2023-02-26T16:02:22.880Z,1.00
2023-02-26T16:05:10.636Z,1.23
2023-02-26T16:07:56.900Z,1.05
2023-02-26T16:10:43.996Z,0.75
2023-02-26T16:13:37.670Z,1.02
2023-02-26T16:16:28.421Z,0.73
2023-02-26T16:19:20.910Z,1.02
2023-02-26T16:22:32.250Z,0.88
2023-02-26T16:25:25.379Z,0.80
2023-02-26T16:28:16.785Z,0.80
2023-02-26T16:31:05.110Z,1.10
2023-02-26T16:34:00.182Z,0.90
2023-02-26T16:36:46.258Z,1.05
2023-02-26T16:39:31.705Z,1.17
2023-02-26T16:42:23.288Z,1.08
2023-02-26T16:45:23.060Z,0.88
2023-02-26T16:48:16.158Z,1.30
2023-02-26T16:51:07.355Z,0.95
2023-02-26T16:53:58.237Z,1.13
2023-02-26T16:56:46.856Z,1.20
2023-02-26T16:59:35.960Z,1.30
2023-02-26T17:02:34.557Z,1.00
2023-02-26T17:05:26.266Z,1.23
2023-02-26T17:08:20.857Z,1.27
2023-02-26T17:11:08.748Z,1.00
2023-02-26T17:14:27.334Z,0.98
2023-02-26T17:17:12.491Z,1.08
2023-02-26T17:19:57.927Z,1.00
2023-02-26T17:22:44.672Z,1.23
2023-02-26T17:25:38.727Z,1.08
2023-02-26T17:28:27.023Z,1.35
2023-02-26T17:31:13.036Z,2.55
2023-02-26T17:33:58.370Z,1.98
2023-02-26T17:36:43.921Z,1.67
2023-02-26T17:39:29.629Z,1.15
2023-02-26T17:42:17.105Z,1.08
2023-02-26T17:45:02.271Z,1.00
2023-02-26T17:47:48.930Z,0.90
2023-02-26T17:50:53.851Z,0.90
2023-02-26T17:53:42.454Z,0.93
2023-02-26T17:56:29.985Z,0.80
2023-02-26T17:59:15.524Z,0.80
2023-02-26T18:02:00.922Z,1.13
2023-02-26T18:04:46.529Z,0.82
2023-02-26T18:07:31.921Z,1.35
2023-02-26T18:10:22.194Z,0.85
2023-02-26T18:13:10.925Z,0.93
2023-02-26T18:15:58.127Z,0.98
2023-02-26T18:18:44.169Z,0.70
2023-02-26T18:21:31.106Z,1.00
2023-02-26T18:24:16.242Z,0.93
2023-02-26T18:27:01.668Z,1.30
2023-02-26T18:29:47.232Z,1.42
2023-02-26T18:32:32.980Z,1.00
2023-02-26T18:35:19.184Z,1.00
2023-02-26T18:38:04.584Z,1.00
2023-02-26T18:40:50.393Z,1.30
2023-02-26T18:43:35.723Z,1.05
2023-02-26T18:46:21.036Z,1.25
2023-02-26T18:49:07.553Z,1.20
2023-02-26T18:51:54.389Z,1.58
2023-02-26T18:54:39.930Z,1.40
2023-02-26T18:57:25.244Z,1.35
2023-02-26T19:00:15.938Z,1.13
2023-02-26T19:03:01.102Z,1.52
2023-02-26T19:05:46.386Z,1.65
2023-02-26T19:08:33.269Z,1.20
2023-02-26T19:11:18.585Z,1.65
2023-02-26T19:14:05.261Z,1.30
2023-02-26T19:16:50.673Z,1.38
2023-02-26T19:19:36.281Z,1.42
2023-02-26T19:22:21.886Z,1.38
2023-02-26T19:25:08.202Z,1.65
2023-02-26T19:27:53.965Z,1.33
2023-02-26T19:30:39.800Z,1.45
2023-02-26T19:33:25.141Z,1.42
2023-02-26T19:36:11.085Z,1.20
2023-02-26T19:38:56.166Z,1.88
2023-02-26T19:41:41.784Z,1.70
2023-02-26T19:44:31.814Z,1.70
2023-02-26T19:47:17.132Z,1.98
2023-02-26T19:50:02.646Z,2.35
2023-02-26T19:52:48.379Z,1.67
2023-02-26T19:55:33.348Z,1.80
2023-02-26T19:58:19.621Z,1.65
2023-02-26T20:01:05.582Z,1.58
2023-02-26T20:03:51.409Z,1.90
2023-02-26T20:06:36.524Z,1.90
2023-02-26T20:09:22.897Z,1.67
2023-02-26T20:12:08.402Z,2.30
2023-02-26T20:14:53.824Z,1.77
2023-02-26T20:17:39.466Z,1.92
2023-02-26T20:20:24.908Z,2.03
2023-02-26T20:23:10.731Z,2.22
2023-02-26T20:25:59.709Z,2.03
2023-02-26T20:28:45.188Z,1.92
2023-02-26T20:31:30.812Z,2.55
2023-02-26T20:34:20.350Z,2.20
2023-02-26T20:37:05.675Z,2.00
2023-02-26T20:39:51.134Z,2.13
2023-02-26T20:42:37.432Z,1.80
2023-02-26T20:45:22.489Z,2.13
2023-02-26T20:48:08.825Z,1.92
2023-02-26T20:51:02.536Z,2.40
2023-02-26T20:53:48.105Z,2.40
2023-02-26T20:56:33.446Z,2.15
2023-02-26T20:59:19.968Z,2.78
2023-02-26T21:02:05.319Z,2.60
2023-02-26T21:04:50.844Z,2.30
2023-02-26T21:07:36.522Z,2.40
2023-02-26T21:10:21.564Z,2.25
2023-02-26T21:13:08.492Z,2.25
2023-02-26T21:15:53.867Z,2.03
2023-02-26T21:18:40.462Z,2.25
2023-02-26T21:21:26.893Z,2.40
2023-02-26T21:24:12.823Z,2.95
2023-02-26T21:26:58.209Z,2.70
2023-02-26T21:29:45.426Z,2.65
2023-02-26T21:32:30.828Z,2.38
2023-02-26T21:35:17.095Z,2.30
2023-02-26T21:38:02.786Z,2.50
2023-02-26T21:40:48.512Z,2.20
2023-02-26T21:43:35.456Z,2.35
2023-02-26T21:46:22.633Z,2.15
2023-02-26T21:49:08.744Z,2.33
2023-02-26T21:51:54.176Z,1.88
2023-02-26T21:54:39.560Z,2.60
2023-02-26T21:57:25.689Z,2.65
2023-02-26T22:00:11.638Z,2.40
2023-02-26T22:02:56.729Z,2.45
2023-02-26T22:05:42.198Z,2.35
2023-02-26T22:08:27.660Z,2.20
2023-02-26T22:11:13.135Z,2.40
2023-02-26T22:13:58.571Z,2.40
2023-02-26T22:16:44.033Z,2.72
2023-02-26T22:19:29.344Z,2.28
2023-02-26T22:22:18.683Z,2.45
2023-02-26T22:25:05.973Z,2.60
2023-02-26T22:27:51.173Z,2.50
2023-02-26T22:30:36.523Z,2.40
2023-02-26T22:33:23.293Z,2.03
2023-02-26T22:36:08.410Z,2.20
2023-02-26T22:38:53.830Z,2.55
2023-02-26T22:41:39.774Z,2.72
2023-02-26T22:44:25.020Z,2.40
2023-02-26T22:47:10.632Z,2.47
2023-02-26T22:49:55.913Z,2.08
2023-02-26T22:52:41.941Z,2.30
2023-02-26T22:55:27.468Z,1.85
2023-02-26T22:58:12.664Z,1.80
2023-02-26T23:01:00.063Z,1.95
2023-02-26T23:03:45.593Z,2.28
2023-02-26T23:06:30.912Z,2.13
2023-02-26T23:09:16.592Z,1.80
2023-02-26T23:12:01.916Z,2.00
2023-02-26T23:14:47.637Z,2.13
2023-02-26T23:17:33.420Z,2.47
2023-02-26T23:20:18.600Z,2.33
2023-02-26T23:23:04.532Z,1.98
2023-02-26T23:25:50.194Z,2.28
2023-02-26T23:28:35.391Z,2.38
2023-02-26T23:31:20.976Z,2.50
2023-02-26T23:34:07.628Z,1.88
2023-02-26T23:36:52.855Z,1.63
2023-02-26T23:39:38.142Z,1.80
2023-02-26T23:42:23.447Z,2.00
2023-02-26T23:45:09.471Z,1.85
2023-02-26T23:47:54.991Z,2.10
2023-02-26T23:50:40.424Z,2.00
2023-02-26T23:53:25.483Z,1.60
2023-02-26T23:56:10.794Z,1.42
2023-02-26T23:58:56.513Z,1.83
